sensor_id;sensor_type;location;lat;lon;timestamp;pressure;altitude;pressure_sealevel;temperature;humidity
38806;BME280;25635;51.146;17.162;2022-12-18T00:01:27;101746.25;;;-5.58;85.80
38806;BME280;25635;51.146;17.162;2022-12-18T00:04:02;101743.93;;;-5.55;85.93
38806;BME280;25635;51.146;17.162;2022-12-18T00:06:30;101749.16;;;-5.53;85.83
38806;BME280;25635;51.146;17.162;2022-12-18T00:08:59;101748.64;;;-5.49;85.94
38806;BME280;25635;51.146;17.162;2022-12-18T00:11:28;101740.86;;;-5.51;85.80
38806;BME280;25635;51.146;17.162;2022-12-18T00:13:58;101747.23;;;-5.51;85.73
38806;BME280;25635;51.146;17.162;2022-12-18T00:16:26;101756.42;;;-5.53;85.64
38806;BME280;25635;51.146;17.162;2022-12-18T00:18:54;101751.45;;;-5.51;85.87
38806;BME280;25635;51.146;17.162;2022-12-18T00:21:24;101754.79;;;-5.52;85.78
38806;BME280;25635;51.146;17.162;2022-12-18T00:23:50;101758.47;;;-5.59;85.98
38806;BME280;25635;51.146;17.162;2022-12-18T00:26:24;101760.52;;;-5.65;85.98
38806;BME280;25635;51.146;17.162;2022-12-18T00:28:49;101766.14;;;-5.64;86.03
38806;BME280;25635;51.146;17.162;2022-12-18T00:31:19;101769.18;;;-5.63;86.20
38806;BME280;25635;51.146;17.162;2022-12-18T00:33:47;101766.12;;;-5.59;86.41
38806;BME280;25635;51.146;17.162;2022-12-18T00:36:16;101763.58;;;-5.54;86.44
38806;BME280;25635;51.146;17.162;2022-12-18T00:38:45;101773.63;;;-5.50;86.41
38806;BME280;25635;51.146;17.162;2022-12-18T00:41:14;101775.19;;;-5.52;86.21
38806;BME280;25635;51.146;17.162;2022-12-18T00:43:45;101781.17;;;-5.52;86.25
38806;BME280;25635;51.146;17.162;2022-12-18T00:46:11;101784.99;;;-5.52;86.14
38806;BME280;25635;51.146;17.162;2022-12-18T00:48:37;101783.97;;;-5.54;86.11
38806;BME280;25635;51.146;17.162;2022-12-18T00:51:04;101789.21;;;-5.52;86.26
38806;BME280;25635;51.146;17.162;2022-12-18T00:53:30;101788.42;;;-5.51;86.27
38806;BME280;25635;51.146;17.162;2022-12-18T00:55:56;101796.44;;;-5.46;86.47
38806;BME280;25635;51.146;17.162;2022-12-18T00:58:23;101798.49;;;-5.37;86.58
38806;BME280;25635;51.146;17.162;2022-12-18T01:00:49;101805.48;;;-5.35;86.31
38806;BME280;25635;51.146;17.162;2022-12-18T01:03:15;101809.58;;;-5.37;86.15
38806;BME280;25635;51.146;17.162;2022-12-18T01:05:42;101813.91;;;-5.41;86.09
38806;BME280;25635;51.146;17.162;2022-12-18T01:08:08;101820.78;;;-5.40;86.24
38806;BME280;25635;51.146;17.162;2022-12-18T01:10:34;101832.91;;;-5.42;86.02
38806;BME280;25635;51.146;17.162;2022-12-18T01:13:00;101830.13;;;-5.45;86.18
38806;BME280;25635;51.146;17.162;2022-12-18T01:15:26;101828.83;;;-5.40;86.28
38806;BME280;25635;51.146;17.162;2022-12-18T01:17:53;101829.97;;;-5.42;86.27
38806;BME280;25635;51.146;17.162;2022-12-18T01:20:19;101830.61;;;-5.44;86.20
38806;BME280;25635;51.146;17.162;2022-12-18T01:22:45;101829.61;;;-5.41;86.31
38806;BME280;25635;51.146;17.162;2022-12-18T01:25:12;101831.64;;;-5.37;86.29
38806;BME280;25635;51.146;17.162;2022-12-18T01:27:38;101834.94;;;-5.38;86.25
38806;BME280;25635;51.146;17.162;2022-12-18T01:30:05;101835.47;;;-5.37;86.28
38806;BME280;25635;51.146;17.162;2022-12-18T01:32:32;101838.89;;;-5.42;86.14
38806;BME280;25635;51.146;17.162;2022-12-18T01:34:58;101837.11;;;-5.48;86.26
38806;BME280;25635;51.146;17.162;2022-12-18T01:37:24;101848.97;;;-5.48;86.45
38806;BME280;25635;51.146;17.162;2022-12-18T01:39:52;101848.58;;;-5.48;86.48
38806;BME280;25635;51.146;17.162;2022-12-18T01:42:21;101849.73;;;-5.55;86.57
38806;BME280;25635;51.146;17.162;2022-12-18T01:47:51;101852.17;;;-5.61;86.72
38806;BME280;25635;51.146;17.162;2022-12-18T01:50:40;101848.20;;;-5.63;86.75
38806;BME280;25635;51.146;17.162;2022-12-18T01:53:14;101846.83;;;-5.64;86.78
38806;BME280;25635;51.146;17.162;2022-12-18T01:55:48;101851.66;;;-5.57;86.98
38806;BME280;25635;51.146;17.162;2022-12-18T01:58:17;101856.25;;;-5.53;87.02
38806;BME280;25635;51.146;17.162;2022-12-18T02:00:44;101851.91;;;-5.49;87.12
38806;BME280;25635;51.146;17.162;2022-12-18T02:03:11;101860.70;;;-5.40;87.16
38806;BME280;25635;51.146;17.162;2022-12-18T02:08:33;101860.46;;;-5.33;87.02
38806;BME280;25635;51.146;17.162;2022-12-18T02:14:10;101856.08;;;-5.19;86.92
38806;BME280;25635;51.146;17.162;2022-12-18T02:16:56;101859.66;;;-5.12;86.84
38806;BME280;25635;51.146;17.162;2022-12-18T02:19:47;101858.25;;;-5.08;86.75
38806;BME280;25635;51.146;17.162;2022-12-18T02:22:42;101860.16;;;-5.05;86.58
38806;BME280;25635;51.146;17.162;2022-12-18T02:28:13;101864.58;;;-4.98;86.44
38806;BME280;25635;51.146;17.162;2022-12-18T02:30:42;101873.81;;;-5.00;86.21
38806;BME280;25635;51.146;17.162;2022-12-18T02:33:11;101869.07;;;-4.95;86.47
38806;BME280;25635;51.146;17.162;2022-12-18T02:35:40;101873.88;;;-4.88;86.66
38806;BME280;25635;51.146;17.162;2022-12-18T02:38:07;101880.27;;;-4.83;86.33
38806;BME280;25635;51.146;17.162;2022-12-18T02:40:33;101879.88;;;-4.82;86.16
38806;BME280;25635;51.146;17.162;2022-12-18T02:43:14;101877.19;;;-4.84;86.11
38806;BME280;25635;51.146;17.162;2022-12-18T02:45:56;101882.30;;;-4.84;86.11
38806;BME280;25635;51.146;17.162;2022-12-18T02:48:32;101880.27;;;-4.83;86.18
38806;BME280;25635;51.146;17.162;2022-12-18T02:51:08;101882.56;;;-4.81;85.98
38806;BME280;25635;51.146;17.162;2022-12-18T02:53:59;101881.15;;;-4.87;85.91
38806;BME280;25635;51.146;17.162;2022-12-18T02:56:38;101890.99;;;-4.92;85.88
38806;BME280;25635;51.146;17.162;2022-12-18T02:59:08;101884.73;;;-4.96;85.88
38806;BME280;25635;51.146;17.162;2022-12-18T03:02:01;101883.36;;;-4.97;86.00
38806;BME280;25635;51.146;17.162;2022-12-18T03:04:40;101887.84;;;-5.00;85.92
38806;BME280;25635;51.146;17.162;2022-12-18T03:07:19;101887.45;;;-4.99;86.09
38806;BME280;25635;51.146;17.162;2022-12-18T03:09:53;101881.46;;;-5.00;86.10
38806;BME280;25635;51.146;17.162;2022-12-18T03:12:30;101882.21;;;-5.01;86.09
38806;BME280;25635;51.146;17.162;2022-12-18T03:15:03;101882.71;;;-4.95;86.34
38806;BME280;25635;51.146;17.162;2022-12-18T03:17:33;101889.20;;;-4.88;86.28
38806;BME280;25635;51.146;17.162;2022-12-18T03:20:06;101894.30;;;-4.88;86.05
38806;BME280;25635;51.146;17.162;2022-12-18T03:22:36;101900.58;;;-4.95;85.85
38806;BME280;25635;51.146;17.162;2022-12-18T03:25:11;101900.20;;;-4.99;85.86
38806;BME280;25635;51.146;17.162;2022-12-18T03:27:42;101900.86;;;-5.02;85.95
38806;BME280;25635;51.146;17.162;2022-12-18T03:30:12;101907.75;;;-5.06;85.91
38806;BME280;25635;51.146;17.162;2022-12-18T03:32:48;101906.84;;;-5.06;86.00
38806;BME280;25635;51.146;17.162;2022-12-18T03:35:21;101911.69;;;-5.04;86.12
38806;BME280;25635;51.146;17.162;2022-12-18T03:37:49;101910.91;;;-4.98;86.37
38806;BME280;25635;51.146;17.162;2022-12-18T03:40:15;101908.60;;;-4.90;86.50
38806;BME280;25635;51.146;17.162;2022-12-18T03:42:51;101907.08;;;-4.83;86.45
38806;BME280;25635;51.146;17.162;2022-12-18T03:48:06;101906.63;;;-4.67;86.22
38806;BME280;25635;51.146;17.162;2022-12-18T03:50:52;101912.76;;;-4.60;86.00
38806;BME280;25635;51.146;17.162;2022-12-18T03:56:13;101909.29;;;-4.55;85.76
38806;BME280;25635;51.146;17.162;2022-12-18T03:58:43;101912.20;;;-4.51;85.80
38806;BME280;25635;51.146;17.162;2022-12-18T04:01:12;101913.88;;;-4.51;85.59
38806;BME280;25635;51.146;17.162;2022-12-18T04:03:39;101915.77;;;-4.49;85.64
38806;BME280;25635;51.146;17.162;2022-12-18T04:06:08;101918.33;;;-4.49;85.39
38806;BME280;25635;51.146;17.162;2022-12-18T04:08:35;101924.97;;;-4.51;85.44
38806;BME280;25635;51.146;17.162;2022-12-18T04:11:02;101924.19;;;-4.44;85.68
38806;BME280;25635;51.146;17.162;2022-12-18T04:13:37;101934.27;;;-4.41;85.65
38806;BME280;25635;51.146;17.162;2022-12-18T04:16:04;101930.28;;;-4.37;85.58
38806;BME280;25635;51.146;17.162;2022-12-18T04:18:30;101929.75;;;-4.33;85.58
38806;BME280;25635;51.146;17.162;2022-12-18T04:20:56;101935.74;;;-4.28;85.53
38806;BME280;25635;51.146;17.162;2022-12-18T04:23:23;101939.84;;;-4.24;85.32
38806;BME280;25635;51.146;17.162;2022-12-18T04:25:49;101945.96;;;-4.28;85.15
38806;BME280;25635;51.146;17.162;2022-12-18T04:28:15;101944.81;;;-4.26;85.19
38806;BME280;25635;51.146;17.162;2022-12-18T04:30:41;101951.95;;;-4.22;85.31
38806;BME280;25635;51.146;17.162;2022-12-18T04:33:11;101951.30;;;-4.19;85.20
38806;BME280;25635;51.146;17.162;2022-12-18T04:35:41;101950.06;;;-4.24;84.78
38806;BME280;25635;51.146;17.162;2022-12-18T04:38:07;101943.97;;;-4.37;84.69
38806;BME280;25635;51.146;17.162;2022-12-18T04:40:36;101948.42;;;-4.39;84.84
38806;BME280;25635;51.146;17.162;2022-12-18T04:43:03;101958.54;;;-4.41;84.89
38806;BME280;25635;51.146;17.162;2022-12-18T04:45:30;101969.91;;;-4.42;84.98
38806;BME280;25635;51.146;17.162;2022-12-18T04:47:58;101971.31;;;-4.46;84.87
38806;BME280;25635;51.146;17.162;2022-12-18T04:50:25;101971.31;;;-4.46;85.07
38806;BME280;25635;51.146;17.162;2022-12-18T04:52:51;101975.05;;;-4.47;84.95
38806;BME280;25635;51.146;17.162;2022-12-18T04:55:17;101982.94;;;-4.44;85.23
38806;BME280;25635;51.146;17.162;2022-12-18T04:57:43;101984.97;;;-4.40;85.27
38806;BME280;25635;51.146;17.162;2022-12-18T05:00:10;101984.71;;;-4.38;85.12
38806;BME280;25635;51.146;17.162;2022-12-18T05:02:37;101993.91;;;-4.40;84.91
38806;BME280;25635;51.146;17.162;2022-12-18T05:05:04;101989.32;;;-4.44;84.89
38806;BME280;25635;51.146;17.162;2022-12-18T05:07:30;101990.47;;;-4.46;84.71
38806;BME280;25635;51.146;17.162;2022-12-18T05:09:57;101993.55;;;-4.45;84.99
38806;BME280;25635;51.146;17.162;2022-12-18T05:12:23;101988.94;;;-4.39;85.06
38806;BME280;25635;51.146;17.162;2022-12-18T05:14:49;101990.83;;;-4.36;84.90
38806;BME280;25635;51.146;17.162;2022-12-18T05:17:15;101994.41;;;-4.39;84.87
38806;BME280;25635;51.146;17.162;2022-12-18T05:19:41;101992.73;;;-4.34;85.04
38806;BME280;25635;51.146;17.162;2022-12-18T05:22:08;101989.40;;;-4.28;85.02
38806;BME280;25635;51.146;17.162;2022-12-18T05:24:35;101985.83;;;-4.24;84.96
38806;BME280;25635;51.146;17.162;2022-12-18T05:27:01;101992.05;;;-4.21;84.80
38806;BME280;25635;51.146;17.162;2022-12-18T05:29:27;101996.67;;;-4.27;84.40
38806;BME280;25635;51.146;17.162;2022-12-18T05:31:54;102002.07;;;-4.34;84.21
38806;BME280;25635;51.146;17.162;2022-12-18T05:34:20;101997.09;;;-4.38;84.51
38806;BME280;25635;51.146;17.162;2022-12-18T05:36:46;102003.84;;;-4.33;84.73
38806;BME280;25635;51.146;17.162;2022-12-18T05:39:12;102003.98;;;-4.26;84.84
38806;BME280;25635;51.146;17.162;2022-12-18T05:41:38;102003.97;;;-4.32;84.35
38806;BME280;25635;51.146;17.162;2022-12-18T05:44:04;102003.87;;;-4.38;84.30
38806;BME280;25635;51.146;17.162;2022-12-18T05:46:30;102011.14;;;-4.38;84.54
38806;BME280;25635;51.146;17.162;2022-12-18T05:48:59;102013.20;;;-4.39;84.33
38806;BME280;25635;51.146;17.162;2022-12-18T05:51:26;102006.80;;;-4.44;84.25
38806;BME280;25635;51.146;17.162;2022-12-18T05:53:52;102007.09;;;-4.51;84.20
38806;BME280;25635;51.146;17.162;2022-12-18T05:56:21;102016.27;;;-4.48;84.33
38806;BME280;25635;51.146;17.162;2022-12-18T05:58:51;102024.60;;;-4.56;84.01
38806;BME280;25635;51.146;17.162;2022-12-18T06:01:25;102030.33;;;-4.58;84.33
38806;BME280;25635;51.146;17.162;2022-12-18T06:03:49;102040.81;;;-4.55;84.49
38806;BME280;25635;51.146;17.162;2022-12-18T06:06:18;102043.37;;;-4.65;83.63
38806;BME280;25635;51.146;17.162;2022-12-18T06:08:48;102051.16;;;-4.74;83.85
38806;BME280;25635;51.146;17.162;2022-12-18T06:11:20;102048.98;;;-4.80;84.07
38806;BME280;25635;51.146;17.162;2022-12-18T06:13:53;102057.41;;;-4.76;84.54
38806;BME280;25635;51.146;17.162;2022-12-18T06:16:20;102047.98;;;-4.77;84.27
38806;BME280;25635;51.146;17.162;2022-12-18T06:18:46;102053.72;;;-4.74;84.34
38806;BME280;25635;51.146;17.162;2022-12-18T06:21:13;102058.96;;;-4.73;84.39
38806;BME280;25635;51.146;17.162;2022-12-18T06:23:39;102059.70;;;-4.69;84.46
38806;BME280;25635;51.146;17.162;2022-12-18T06:26:07;102067.88;;;-4.67;84.27
38806;BME280;25635;51.146;17.162;2022-12-18T06:28:35;102069.02;;;-4.69;83.80
38806;BME280;25635;51.146;17.162;2022-12-18T06:31:02;102070.70;;;-4.75;83.63
38806;BME280;25635;51.146;17.162;2022-12-18T06:33:29;102073.10;;;-4.81;83.66
38806;BME280;25635;51.146;17.162;2022-12-18T06:36:06;102076.06;;;-4.87;83.64
38806;BME280;25635;51.146;17.162;2022-12-18T06:38:31;102073.87;;;-4.93;83.72
38806;BME280;25635;51.146;17.162;2022-12-18T06:40:59;102082.29;;;-4.99;83.72
38806;BME280;25635;51.146;17.162;2022-12-18T06:43:25;102086.12;;;-4.99;83.94
38806;BME280;25635;51.146;17.162;2022-12-18T06:45:59;102085.36;;;-4.93;84.58
38806;BME280;25635;51.146;17.162;2022-12-18T06:48:26;102086.50;;;-4.94;83.87
38806;BME280;25635;51.146;17.162;2022-12-18T06:50:53;102092.25;;;-4.97;83.85
38806;BME280;25635;51.146;17.162;2022-12-18T06:53:19;102093.38;;;-4.98;83.98
38806;BME280;25635;51.146;17.162;2022-12-18T06:55:45;102099.27;;;-4.99;83.75
38806;BME280;25635;51.146;17.162;2022-12-18T06:58:11;102101.44;;;-5.04;83.90
38806;BME280;25635;51.146;17.162;2022-12-18T07:00:37;102111.50;;;-5.05;84.05
38806;BME280;25635;51.146;17.162;2022-12-18T07:03:03;102111.64;;;-5.04;84.26
38806;BME280;25635;51.146;17.162;2022-12-18T07:05:29;102108.84;;;-5.02;84.14
38806;BME280;25635;51.146;17.162;2022-12-18T07:07:55;102108.95;;;-5.05;83.92
38806;BME280;25635;51.146;17.162;2022-12-18T07:10:21;102104.84;;;-5.09;84.06
38806;BME280;25635;51.146;17.162;2022-12-18T07:12:47;102110.09;;;-5.07;84.19
38806;BME280;25635;51.146;17.162;2022-12-18T07:15:14;102115.97;;;-5.03;84.35
38806;BME280;25635;51.146;17.162;2022-12-18T07:17:40;102116.11;;;-5.01;84.25
38806;BME280;25635;51.146;17.162;2022-12-18T07:20:07;102118.27;;;-4.96;84.18
38806;BME280;25635;51.146;17.162;2022-12-18T07:22:35;102116.38;;;-4.93;84.23
38806;BME280;25635;51.146;17.162;2022-12-18T07:25:01;102116.51;;;-4.86;84.36
38806;BME280;25635;51.146;17.162;2022-12-18T07:27:27;102126.72;;;-4.86;83.67
38806;BME280;25635;51.146;17.162;2022-12-18T07:29:53;102129.14;;;-4.93;83.76
38806;BME280;25635;51.146;17.162;2022-12-18T07:32:20;102131.30;;;-4.93;84.04
38806;BME280;25635;51.146;17.162;2022-12-18T07:34:46;102126.19;;;-4.87;84.28
38806;BME280;25635;51.146;17.162;2022-12-18T07:37:13;102134.64;;;-4.78;84.37
38806;BME280;25635;51.146;17.162;2022-12-18T07:39:39;102137.72;;;-4.72;84.24
38806;BME280;25635;51.146;17.162;2022-12-18T07:42:05;102140.12;;;-4.69;84.13
38806;BME280;25635;51.146;17.162;2022-12-18T07:44:49;102146.90;;;-4.69;83.96
38806;BME280;25635;51.146;17.162;2022-12-18T07:47:15;102150.11;;;-4.61;84.09
38806;BME280;25635;51.146;17.162;2022-12-18T07:49:41;102151.87;;;-4.60;84.05
38806;BME280;25635;51.146;17.162;2022-12-18T07:52:07;102151.13;;;-4.59;83.81
38806;BME280;25635;51.146;17.162;2022-12-18T07:54:35;102149.22;;;-4.62;83.33
38806;BME280;25635;51.146;17.162;2022-12-18T07:57:01;102149.97;;;-4.63;83.56
38806;BME280;25635;51.146;17.162;2022-12-18T07:59:27;102143.20;;;-4.62;83.55
38806;BME280;25635;51.146;17.162;2022-12-18T08:01:53;102142.31;;;-4.63;83.58
38806;BME280;25635;51.146;17.162;2022-12-18T08:04:19;102146.78;;;-4.65;83.41
38806;BME280;25635;51.146;17.162;2022-12-18T08:06:45;102155.86;;;-4.64;83.62
38806;BME280;25635;51.146;17.162;2022-12-18T08:09:12;102161.33;;;-4.64;83.57
38806;BME280;25635;51.146;17.162;2022-12-18T08:11:38;102169.52;;;-4.63;83.63
38806;BME280;25635;51.146;17.162;2022-12-18T08:14:04;102170.79;;;-4.63;83.34
38806;BME280;25635;51.146;17.162;2022-12-18T08:16:30;102165.41;;;-4.66;83.48
38806;BME280;25635;51.146;17.162;2022-12-18T08:18:56;102176.66;;;-4.70;83.23
38806;BME280;25635;51.146;17.162;2022-12-18T08:21:26;102185.06;;;-4.71;83.12
38806;BME280;25635;51.146;17.162;2022-12-18T08:23:58;102186.09;;;-4.74;83.35
38806;BME280;25635;51.146;17.162;2022-12-18T08:26:27;102192.47;;;-4.74;83.49
38806;BME280;25635;51.146;17.162;2022-12-18T08:28:56;102190.06;;;-4.72;83.50
38806;BME280;25635;51.146;17.162;2022-12-18T08:31:24;102195.27;;;-4.71;83.61
38806;BME280;25635;51.146;17.162;2022-12-18T08:33:52;102192.22;;;-4.66;83.71
38806;BME280;25635;51.146;17.162;2022-12-18T08:36:20;102195.05;;;-4.63;83.81
38806;BME280;25635;51.146;17.162;2022-12-18T08:38:47;102199.52;;;-4.61;83.60
38806;BME280;25635;51.146;17.162;2022-12-18T08:41:15;102206.92;;;-4.59;83.43
38806;BME280;25635;51.146;17.162;2022-12-18T08:43:42;102208.20;;;-4.59;83.34
38806;BME280;25635;51.146;17.162;2022-12-18T08:46:33;102215.86;;;-4.59;83.50
38806;BME280;25635;51.146;17.162;2022-12-18T08:49:01;102216.25;;;-4.54;83.66
38806;BME280;25635;51.146;17.162;2022-12-18T08:51:30;102221.35;;;-4.54;83.01
38806;BME280;25635;51.146;17.162;2022-12-18T08:53:56;102229.27;;;-4.61;82.79
38806;BME280;25635;51.146;17.162;2022-12-18T08:56:22;102227.75;;;-4.59;83.30
38806;BME280;25635;51.146;17.162;2022-12-18T08:58:53;102229.27;;;-4.56;83.34
38806;BME280;25635;51.146;17.162;2022-12-18T09:01:20;102224.16;;;-4.56;83.14
38806;BME280;25635;51.146;17.162;2022-12-18T09:03:48;102219.08;;;-4.51;83.24
38806;BME280;25635;51.146;17.162;2022-12-18T09:06:20;102217.93;;;-4.44;83.62
38806;BME280;25635;51.146;17.162;2022-12-18T09:08:46;102211.92;;;-4.40;83.54
38806;BME280;25635;51.146;17.162;2022-12-18T09:11:18;102217.42;;;-4.35;83.22
38806;BME280;25635;51.146;17.162;2022-12-18T09:13:46;102217.81;;;-4.36;82.94
38806;BME280;25635;51.146;17.162;2022-12-18T09:16:12;102217.55;;;-4.34;83.09
38806;BME280;25635;51.146;17.162;2022-12-18T09:18:38;102214.88;;;-4.30;83.05
38806;BME280;25635;51.146;17.162;2022-12-18T09:21:10;102199.81;;;-4.32;82.67
38806;BME280;25635;51.146;17.162;2022-12-18T09:23:37;102197.12;;;-4.34;82.62
38806;BME280;25635;51.146;17.162;2022-12-18T09:26:04;102188.17;;;-4.34;81.67
38806;BME280;25635;51.146;17.162;2022-12-18T09:28:30;102193.66;;;-4.39;82.33
38806;BME280;25635;51.146;17.162;2022-12-18T09:30:56;102187.91;;;-4.42;82.47
38806;BME280;25635;51.146;17.162;2022-12-18T09:33:22;102179.25;;;-4.39;83.06
38806;BME280;25635;51.146;17.162;2022-12-18T09:35:49;102173.63;;;-4.35;83.09
38806;BME280;25635;51.146;17.162;2022-12-18T09:38:19;102175.67;;;-4.31;82.92
38806;BME280;25635;51.146;17.162;2022-12-18T09:40:54;102173.22;;;-4.29;82.28
38806;BME280;25635;51.146;17.162;2022-12-18T09:43:30;102164.53;;;-4.31;82.55
38806;BME280;25635;51.146;17.162;2022-12-18T09:46:07;102162.25;;;-4.28;82.63
38806;BME280;25635;51.146;17.162;2022-12-18T09:48:38;102158.28;;;-4.30;82.31
38806;BME280;25635;51.146;17.162;2022-12-18T09:51:30;102154.70;;;-4.32;82.10
38806;BME280;25635;51.146;17.162;2022-12-18T09:53:57;102152.94;;;-4.33;82.39
38806;BME280;25635;51.146;17.162;2022-12-18T09:56:29;102154.45;;;-4.30;82.32
38806;BME280;25635;51.146;17.162;2022-12-18T09:59:00;102158.16;;;-4.26;82.60
38806;BME280;25635;51.146;17.162;2022-12-18T10:01:29;102156.87;;;-4.21;82.58
38806;BME280;25635;51.146;17.162;2022-12-18T10:03:56;102150.36;;;-4.17;82.54
38806;BME280;25635;51.146;17.162;2022-12-18T10:06:29;102157.38;;;-4.15;82.19
38806;BME280;25635;51.146;17.162;2022-12-18T10:09:07;102157.24;;;-4.16;82.27
38806;BME280;25635;51.146;17.162;2022-12-18T10:11:51;102150.47;;;-4.11;82.57
38806;BME280;25635;51.146;17.162;2022-12-18T10:14:43;102147.80;;;-4.07;82.58
38806;BME280;25635;51.146;17.162;2022-12-18T10:20:46;102163.38;;;-3.99;81.81
38806;BME280;25635;51.146;17.162;2022-12-18T10:23:21;102173.98;;;-4.04;82.00
38806;BME280;25635;51.146;17.162;2022-12-18T10:26:03;102164.03;;;-4.01;82.31
38806;BME280;25635;51.146;17.162;2022-12-18T10:28:34;102172.69;;;-3.94;82.35
38806;BME280;25635;51.146;17.162;2022-12-18T10:31:10;102178.69;;;-3.94;81.87
38806;BME280;25635;51.146;17.162;2022-12-18T10:33:34;102175.87;;;-3.92;82.29
38806;BME280;25635;51.146;17.162;2022-12-18T10:36:00;102174.22;;;-3.86;82.23
38806;BME280;25635;51.146;17.162;2022-12-18T10:38:29;102163.20;;;-3.85;81.84
38806;BME280;25635;51.146;17.162;2022-12-18T10:41:06;102168.22;;;-3.87;81.99
38806;BME280;25635;51.146;17.162;2022-12-18T10:43:48;102168.19;;;-3.81;82.25
38806;BME280;25635;51.146;17.162;2022-12-18T10:46:20;102170.48;;;-3.79;81.84
38806;BME280;25635;51.146;17.162;2022-12-18T10:54:03;102169.63;;;-3.90;81.58
38806;BME280;25635;51.146;17.162;2022-12-18T10:56:33;102173.84;;;-3.91;81.49
38806;BME280;25635;51.146;17.162;2022-12-18T10:59:06;102168.08;;;-3.88;81.91
38806;BME280;25635;51.146;17.162;2022-12-18T11:01:55;102169.23;;;-3.84;81.97
38806;BME280;25635;51.146;17.162;2022-12-18T11:09:33;102175.72;;;-3.68;81.91
38806;BME280;25635;51.146;17.162;2022-12-18T11:12:15;102176.21;;;-3.61;81.89
38806;BME280;25635;51.146;17.162;2022-12-18T11:14:51;102175.55;;;-3.64;81.25
38806;BME280;25635;51.146;17.162;2022-12-18T11:17:30;102181.84;;;-3.65;81.27
38806;BME280;25635;51.146;17.162;2022-12-18T11:20:01;102181.95;;;-3.64;81.36
38806;BME280;25635;51.146;17.162;2022-12-18T11:22:31;102185.42;;;-3.63;81.49
38806;BME280;25635;51.146;17.162;2022-12-18T11:25:05;102188.34;;;-3.64;81.25
38806;BME280;25635;51.146;17.162;2022-12-18T11:27:40;102197.03;;;-3.62;81.47
38806;BME280;25635;51.146;17.162;2022-12-18T11:30:35;102200.52;;;-3.61;81.22
38806;BME280;25635;51.146;17.162;2022-12-18T11:33:10;102198.58;;;-3.64;81.03
38806;BME280;25635;51.146;17.162;2022-12-18T11:35:53;102195.27;;;-3.63;81.12
38806;BME280;25635;51.146;17.162;2022-12-18T11:38:28;102189.63;;;-3.64;81.09
38806;BME280;25635;51.146;17.162;2022-12-18T11:41:30;102189.27;;;-3.63;81.09
38806;BME280;25635;51.146;17.162;2022-12-18T11:47:28;102194.38;;;-3.69;80.25
38806;BME280;25635;51.146;17.162;2022-12-18T11:50:03;102187.09;;;-3.69;81.25
38806;BME280;25635;51.146;17.162;2022-12-18T11:52:33;102182.50;;;-3.68;81.12
38806;BME280;25635;51.146;17.162;2022-12-18T11:55:25;102178.53;;;-3.70;80.84
38806;BME280;25635;51.146;17.162;2022-12-18T12:00:25;102176.25;;;-3.82;80.20
38806;BME280;25635;51.146;17.162;2022-12-18T12:12:01;102175.63;;;-4.00;81.19
38806;BME280;25635;51.146;17.162;2022-12-18T12:20:39;102167.56;;;-3.89;81.56
38806;BME280;25635;51.146;17.162;2022-12-18T12:23:51;102171.27;;;-3.85;81.51
38806;BME280;25635;51.146;17.162;2022-12-18T12:26:45;102166.55;;;-3.86;80.98
38806;BME280;25635;51.146;17.162;2022-12-18T12:32:21;102157.72;;;-3.90;81.22
38806;BME280;25635;51.146;17.162;2022-12-18T12:37:38;102158.77;;;-3.93;80.51
38806;BME280;25635;51.146;17.162;2022-12-18T12:40:06;102156.73;;;-3.97;80.36
38806;BME280;25635;51.146;17.162;2022-12-18T12:42:35;102164.53;;;-3.95;80.95
38806;BME280;25635;51.146;17.162;2022-12-18T12:45:33;102155.45;;;-3.97;80.87
38806;BME280;25635;51.146;17.162;2022-12-18T12:48:01;102161.81;;;-3.92;81.08
38806;BME280;25635;51.146;17.162;2022-12-18T12:50:30;102165.66;;;-3.87;81.24
38806;BME280;25635;51.146;17.162;2022-12-18T12:53:01;102160.78;;;-3.83;80.77
38806;BME280;25635;51.146;17.162;2022-12-18T12:55:31;102167.30;;;-3.87;80.73
38806;BME280;25635;51.146;17.162;2022-12-18T12:58:19;102164.12;;;-3.84;80.93
38806;BME280;25635;51.146;17.162;2022-12-18T13:01:18;102157.21;;;-3.80;80.89
38806;BME280;25635;51.146;17.162;2022-12-18T13:10:10;102165.27;;;-3.86;80.59
38806;BME280;25635;51.146;17.162;2022-12-18T13:12:32;102163.98;;;-3.86;80.57
38806;BME280;25635;51.146;17.162;2022-12-18T13:18:18;102165.66;;;-3.87;80.62
38806;BME280;25635;51.146;17.162;2022-12-18T13:23:34;102162.84;;;-3.84;80.38
38806;BME280;25635;51.146;17.162;2022-12-18T13:28:53;102162.60;;;-3.93;80.03
38806;BME280;25635;51.146;17.162;2022-12-18T13:34:27;102165.30;;;-4.17;79.75
38806;BME280;25635;51.146;17.162;2022-12-18T13:40:20;102158.16;;;-4.26;80.20
38806;BME280;25635;51.146;17.162;2022-12-18T13:42:38;102166.48;;;-4.29;80.13
38806;BME280;25635;51.146;17.162;2022-12-18T13:45:43;102176.28;;;-4.33;80.01
38806;BME280;25635;51.146;17.162;2022-12-18T13:48:18;102179.34;;;-4.37;80.52
38806;BME280;25635;51.146;17.162;2022-12-18T13:50:57;102179.48;;;-4.36;80.42
38806;BME280;25635;51.146;17.162;2022-12-18T13:53:44;102182.05;;;-4.41;80.39
38806;BME280;25635;51.146;17.162;2022-12-18T13:56:26;102186.64;;;-4.47;80.49
38806;BME280;25635;51.146;17.162;2022-12-18T14:01:59;102190.35;;;-4.54;80.53
38806;BME280;25635;51.146;17.162;2022-12-18T14:04:28;102191.09;;;-4.55;80.67
38806;BME280;25635;51.146;17.162;2022-12-18T14:07:10;102198.51;;;-4.53;80.69
38806;BME280;25635;51.146;17.162;2022-12-18T14:09:45;102189.57;;;-4.53;80.89
38806;BME280;25635;51.146;17.162;2022-12-18T14:12:23;102189.96;;;-4.53;80.66
38806;BME280;25635;51.146;17.162;2022-12-18T14:15:19;102198.02;;;-4.54;80.59
38806;BME280;25635;51.146;17.162;2022-12-18T14:17:40;102201.95;;;-4.57;80.51
38806;BME280;25635;51.146;17.162;2022-12-18T14:20:13;102210.26;;;-4.60;80.72
38806;BME280;25635;51.146;17.162;2022-12-18T14:22:46;102216.25;;;-4.59;80.57